Flight Track Log - Related Links

Times and Time Zones

All times are in EDT time to prevent confusion due to time zone crossing. See the SWA407 flight status page for this flight to view local times or setup timezone preferences in your user account.

Time Position Orientation Groundspeed Altitude Reporting Facility
EDT Latitude Longitude Course Direction KTS MPH feet Rate Location/Type
Sun 07:33:12 PM 42.8833 -78.7833 171° South 209 241 4,800  Level Buffalo TRACON
Sun 07:34:20 PM 42.8169 -78.7689 171° South 239 275 7,800 2,813 Climbing Cleveland Center
Sun 07:35:20 PM 42.7519 -78.7511 169° South 270 311 10,800 2,900 Climbing Cleveland Center
Sun 07:36:20 PM 42.6622 -78.7339 172° South 294 338 13,600 2,100 Climbing Cleveland Center
Sun 07:37:20 PM 42.5639 -78.7114 170° South 331 381 15,000 1,000 Climbing Cleveland Center
Sun 07:38:20 PM 42.4594 -78.6919 172° South 352 405 15,600 2,200 Climbing Cleveland Center
Sun 07:39:20 PM 42.3650 -78.6525 163° South 362 417 19,400 3,650 Climbing Cleveland Center
Sun 07:40:20 PM 42.2797 -78.5542 140° Southeast 371 427 22,900 2,800 Climbing Cleveland Center
Sun 07:41:20 PM 42.1967 -78.4586 140° Southeast 391 450 25,000 1,050 Climbing Cleveland Center
Sun 07:42:20 PM 42.1008 -78.3472 139° Southeast 399 459 25,000  Level Cleveland Center
Sun 07:43:20 PM 42.0178 -78.2522 140° Southeast 404 465 25,000  Level Cleveland Center
Sun 07:44:20 PM 41.9431 -78.1683 140° Southeast 404 465 25,000  Level Cleveland Center
Sun 07:45:40 PM 41.8222 -78.0328 140° Southeast 410 472 25,000  Level New York Center
Sun 07:46:41 PM 41.7444 -77.9436 139° Southeast 405 466 25,000  Level New York Center
Sun 07:47:41 PM 41.6583 -77.8483 140° Southeast 405 466 25,000  Level New York Center
Sun 07:48:41 PM 41.5744 -77.7536 140° Southeast 405 466 25,000  Level New York Center
Sun 07:49:40 PM 41.4906 -77.6561 139° Southeast 405 466 25,000  Level New York Center
Sun 07:50:41 PM 41.4006 -77.5556 140° Southeast 412 474 25,000  Level New York Center
Sun 07:51:42 PM 41.3003 -77.4461 141° Southeast 441 507 25,000 -843 Level New York Center
Sun 07:52:42 PM 41.1892 -77.3856 158° South 448 516 23,300 -1,424 Descending New York Center
Sun 07:53:40 PM 41.0686 -77.3436 165° South 422 486 22,200 -1,068 Descending New York Center
Sun 07:54:40 PM 40.9622 -77.3058 165° South 408 470 21,200 -942 Descending New York Center
Sun 07:55:41 PM 40.8542 -77.2650 164° South 408 470 20,300 -942 Descending New York Center
Sun 07:56:41 PM 40.7458 -77.2247 164° South 408 470 19,300 -992 Descending New York Center
Sun 07:57:42 PM 40.6394 -77.1875 165° South 413 475 18,300 -1,041 Descending New York Center
Sun 07:58:42 PM 40.5333 -77.1475 164° South 403 464 17,200 -825 Descending New York Center
Sun 08:00:22 PM 40.3500 -77.0833 165° South 379 436 16,100 -825 Descending Potomac TRACON
Sun 08:01:22 PM 40.2667 -77.0500 163° South 343 395 15,000 -1,500 Descending Potomac TRACON
Sun 08:02:22 PM 40.1667 -77.0167 166° South 342 394 13,100 -1,800 Descending Potomac TRACON
Sun 08:03:22 PM 40.0833 -76.9833 163° South 335 386 11,400 -1,368 Descending Potomac TRACON
Sun 08:04:16 PM 40.0000 -76.9500 163° South 320 368 10,500 -684 Descending Potomac TRACON
Sun 08:05:16 PM 39.9167 -76.9167 163° South 311 358 10,100 -429 Descending Potomac TRACON
Sun 08:06:22 PM 39.8167 -76.9000 173° South 298 343 9,600 -800 Descending Potomac TRACON
Sun 08:07:16 PM 39.7500 -76.9000 180° South 292 336 8,500 -1,211 Descending Potomac TRACON
Sun 08:08:16 PM 39.6833 -76.9000 180° South 276 318 7,300 -1,200 Descending Potomac TRACON
Sun 08:09:11 PM 39.6000 -76.9000 180° South 271 312 6,200 -1,043 Descending Potomac TRACON
Sun 08:10:11 PM 39.5333 -76.9000 180° South 263 303 5,300 -900 Descending Potomac TRACON
Sun 08:11:11 PM 39.4667 -76.9000 180° South 244 281 4,400 -650 Descending Potomac TRACON
Sun 08:12:11 PM 39.4000 -76.9000 180° South 220 253 4,000 -500 Descending Potomac TRACON
Sun 08:13:11 PM 39.3500 -76.9000 180° South 200 230 3,400 -450 Descending Potomac TRACON
Sun 08:14:11 PM 39.2833 -76.9000 180° South 197 227 3,100 -150 Descending Potomac TRACON
Sun 08:15:11 PM 39.2333 -76.9000 180° South 196 226 3,100 -200 Level Potomac TRACON
Sun 08:16:11 PM 39.2000 -76.8500 131° Southeast 212 244 2,700 -632 Descending Potomac TRACON
Sun 08:17:05 PM 39.1833 -76.7833 108° East 191 220 1,900 -950 Descending Potomac TRACON
Sun 08:18:11 PM 39.1833 -76.7333 90° East 152 175 800 -1,000 Descending Potomac TRACON
Sun 08:20:00 PM 39.1667 -76.6667 270° West  Level FlightAware Approximate
Sun 08:27:00 PM 39.1754 -76.6683 270° West  Level Estimated
Sun 08:28:00 PM 39.1754 -76.6683 270° West  Level Estimated
Sun 08:29:00 PM 39.1754 -76.6683 270° West  Level Estimated

Login

Don't have an account? Register now (free) for customized features, flight alerts, and more!